createdAt,value
2023-04-19T00:02:13.796Z,9.06
2023-04-19T00:07:18.606Z,8.95
2023-04-19T00:12:21.132Z,7.73
2023-04-19T00:17:23.696Z,7.01
2023-04-19T00:22:27.383Z,6.70
2023-04-19T00:27:29.886Z,8.20
2023-04-19T00:32:32.526Z,9.98
2023-04-19T00:37:35.671Z,10.99
2023-04-19T00:42:38.237Z,10.91
2023-04-19T00:47:41.460Z,9.33
2023-04-19T00:52:44.778Z,8.28
2023-04-19T00:57:48.269Z,7.54
2023-04-19T01:02:50.954Z,6.95
2023-04-19T01:07:53.570Z,7.25
2023-04-19T01:12:56.116Z,9.10
2023-04-19T01:17:58.704Z,10.18
2023-04-19T01:23:01.358Z,11.06
2023-04-19T01:28:04.107Z,11.03
2023-04-19T01:33:06.634Z,9.49
2023-04-19T01:38:09.098Z,8.36
2023-04-19T01:43:14.163Z,7.66
2023-04-19T01:48:16.750Z,7.79
2023-04-19T01:53:19.413Z,9.51
2023-04-19T01:58:21.909Z,10.64
2023-04-19T02:03:24.597Z,11.56
2023-04-19T02:08:27.626Z,11.49
2023-04-19T02:13:30.115Z,9.81
2023-04-19T02:18:33.317Z,8.71
2023-04-19T02:23:36.871Z,7.93
2023-04-19T02:28:39.398Z,8.10
2023-04-19T02:33:41.934Z,9.86
2023-04-19T02:38:44.785Z,10.93
2023-04-19T02:43:47.234Z,11.64
2023-04-19T02:48:49.690Z,12.05
2023-04-19T02:53:52.165Z,11.02
2023-04-19T02:58:55.024Z,9.55
2023-04-19T03:03:57.735Z,8.66
2023-04-19T03:09:00.749Z,8.03
2023-04-19T03:14:03.232Z,7.55
2023-04-19T03:19:05.728Z,7.83
2023-04-19T03:24:08.570Z,9.58
2023-04-19T03:29:11.036Z,10.67
2023-04-19T03:34:13.924Z,10.64
2023-04-19T03:39:17.061Z,9.18
2023-04-19T03:44:20.777Z,8.23
2023-04-19T03:49:23.368Z,7.61
2023-04-19T03:54:26.306Z,7.25
2023-04-19T03:59:28.819Z,7.72
2023-04-19T04:04:31.471Z,9.69
2023-04-19T04:09:34.364Z,10.13
2023-04-19T04:14:36.873Z,8.84
2023-04-19T04:19:39.351Z,7.92
2023-04-19T04:24:43.053Z,7.42
2023-04-19T04:29:45.782Z,8.80
2023-04-19T04:34:48.760Z,10.13
2023-04-19T04:39:51.736Z,9.62
2023-04-19T04:44:57.798Z,8.56
2023-04-19T04:50:02.239Z,9.61
2023-04-19T04:55:06.231Z,10.64
2023-04-19T05:00:11.160Z,11.30
2023-04-19T05:05:15.003Z,11.07
2023-04-19T05:10:17.621Z,9.49
2023-04-19T05:15:20.324Z,8.60
2023-04-19T05:20:22.872Z,8.00
2023-04-19T05:25:25.498Z,8.08
2023-04-19T05:30:28.015Z,9.60
2023-04-19T05:35:30.550Z,10.27
2023-04-19T05:40:33.179Z,10.47
2023-04-19T05:45:35.762Z,9.12
2023-04-19T05:50:39.193Z,8.75
2023-04-19T05:55:41.748Z,10.16
2023-04-19T06:00:44.418Z,10.43
2023-04-19T06:05:46.978Z,9.22
2023-04-19T06:10:55.879Z,9.25
2023-04-19T06:16:01.021Z,10.82
2023-04-19T06:21:03.708Z,11.23
2023-04-19T06:26:06.355Z,10.05
2023-04-19T06:31:08.859Z,9.44
2023-04-19T06:36:12.122Z,10.92
2023-04-19T06:41:14.803Z,11.59
2023-04-19T06:46:17.475Z,10.22
2023-04-19T06:51:20.344Z,9.21
2023-04-19T06:56:45.798Z,8.57
2023-04-19T07:01:48.869Z,9.55
2023-04-19T07:06:51.599Z,10.35
2023-04-19T07:11:54.403Z,9.15
2023-04-19T07:16:56.936Z,8.75
2023-04-19T07:21:59.491Z,10.19
2023-04-19T07:27:02.234Z,11.22
2023-04-19T07:32:05.096Z,10.71
2023-04-19T07:37:07.578Z,9.52
2023-04-19T07:42:10.146Z,8.97
2023-04-19T07:47:12.628Z,10.11
2023-04-19T07:52:15.307Z,10.78
2023-04-19T07:57:17.889Z,9.78
2023-04-19T08:02:21.288Z,10.20
2023-04-19T08:07:24.095Z,11.43
2023-04-19T08:12:36.458Z,10.70
2023-04-19T08:17:44.838Z,9.68
2023-04-19T08:22:47.873Z,10.27
2023-04-19T08:27:50.377Z,11.26
2023-04-19T08:32:55.436Z,10.97
2023-04-19T08:37:59.401Z,9.58
2023-04-19T08:43:06.758Z,9.25
2023-04-19T08:48:11.827Z,10.26
2023-04-19T08:53:24.928Z,11.02
2023-04-19T08:58:45.796Z,10.20
2023-04-19T09:04:02.693Z,10.17
2023-04-19T09:09:34.113Z,11.19
2023-04-19T09:14:59.945Z,11.09
2023-04-19T09:20:05.771Z,9.68
2023-04-19T09:30:24.111Z,11.10
2023-04-19T09:35:48.358Z,11.23
2023-04-19T09:40:50.910Z,9.71
2023-04-19T09:45:53.542Z,9.97
2023-04-19T09:51:02.278Z,11.11
2023-04-19T09:56:07.427Z,11.53
2023-04-19T10:01:15.462Z,9.95
2023-04-19T10:11:30.996Z,11.34
2023-04-19T10:16:35.511Z,11.20
2023-04-19T10:21:39.571Z,9.71
2023-04-19T10:27:14.353Z,10.59
2023-04-19T10:32:17.194Z,11.34
2023-04-19T10:37:26.168Z,11.62
2023-04-19T10:43:01.693Z,11.57
2023-04-19T10:48:04.758Z,10.75
2023-04-19T10:53:39.280Z,12.12
2023-04-19T10:59:00.989Z,13.58
2023-04-19T11:04:04.675Z,13.26
2023-04-19T11:09:10.045Z,11.78
2023-04-19T11:14:14.315Z,11.63
2023-04-19T11:19:18.240Z,12.63
2023-04-19T11:24:21.190Z,11.60
2023-04-19T11:29:24.916Z,11.22
2023-04-19T11:34:27.507Z,12.30
2023-04-19T11:39:30.214Z,12.00
2023-04-19T11:44:34.013Z,11.05
2023-04-19T11:49:36.466Z,12.26
2023-04-19T11:54:39.902Z,12.63
2023-04-19T12:00:05.795Z,11.40
2023-04-19T12:05:13.054Z,11.48
2023-04-19T12:10:15.706Z,13.10
2023-04-19T12:15:18.427Z,13.40
2023-04-19T12:20:37.760Z,11.97
2023-04-19T12:25:41.226Z,11.82
2023-04-19T12:30:44.057Z,13.01
2023-04-19T12:35:46.823Z,12.21
2023-04-19T12:40:49.424Z,11.32
2023-04-19T12:45:52.037Z,12.39
2023-04-19T12:50:54.630Z,12.91
2023-04-19T12:55:57.091Z,11.87
2023-04-19T13:00:59.647Z,11.01
2023-04-19T13:06:05.851Z,11.74
2023-04-19T13:11:08.405Z,13.05
2023-04-19T13:16:11.188Z,13.28
2023-04-19T13:21:14.037Z,12.34
2023-04-19T13:26:16.541Z,11.89
2023-04-19T13:31:19.174Z,13.15
2023-04-19T13:36:22.566Z,14.50
2023-04-19T13:41:26.019Z,13.67
2023-04-19T13:46:28.551Z,12.85
2023-04-19T13:51:42.437Z,12.72
2023-04-19T13:56:51.984Z,14.11
2023-04-19T14:01:56.031Z,14.47
2023-04-19T14:06:58.740Z,13.37
2023-04-19T14:12:02.414Z,12.88
2023-04-19T14:17:05.395Z,12.65
2023-04-19T14:22:07.921Z,13.14
2023-04-19T14:27:11.737Z,14.63
2023-04-19T14:37:22.193Z,15.93
2023-04-19T14:42:24.823Z,14.91
2023-04-19T14:47:27.390Z,14.41
2023-04-19T14:52:30.275Z,14.21
2023-04-19T14:57:32.801Z,14.17
2023-04-19T15:02:35.533Z,14.16
2023-04-19T15:07:38.500Z,14.16
2023-04-19T15:12:41.192Z,14.21
2023-04-19T15:17:43.669Z,14.26
2023-04-19T15:22:46.192Z,14.33
2023-04-19T15:27:48.955Z,14.35
2023-04-19T15:32:51.577Z,14.36
2023-04-19T15:37:54.124Z,14.42
2023-04-19T15:42:56.775Z,15.69
2023-04-19T15:48:00.337Z,17.18
2023-04-19T15:53:03.561Z,16.68
2023-04-19T15:58:06.343Z,15.92
2023-04-19T16:03:12.531Z,15.41
2023-04-19T16:08:19.245Z,15.00
2023-04-19T16:13:21.761Z,14.64
2023-04-19T16:18:24.240Z,14.61
2023-04-19T16:23:28.172Z,14.48
2023-04-19T16:28:30.711Z,15.52
2023-04-19T16:33:33.224Z,16.90
2023-04-19T16:38:35.768Z,17.14
2023-04-19T16:43:38.291Z,16.40
2023-04-19T16:48:41.093Z,16.13
2023-04-19T16:53:45.464Z,15.61
2023-04-19T16:58:48.180Z,15.11
2023-04-19T17:03:51.173Z,14.73
2023-04-19T17:08:53.768Z,14.37
2023-04-19T17:13:56.860Z,13.85
2023-04-19T17:19:00.659Z,13.27
2023-04-19T17:24:03.194Z,12.85
2023-04-19T17:29:06.170Z,13.24
2023-04-19T17:34:08.724Z,15.06
2023-04-19T17:39:11.330Z,15.34
2023-04-19T17:44:14.150Z,13.99
2023-04-19T17:49:21.074Z,13.22
2023-04-19T17:54:23.812Z,12.68
2023-04-19T17:59:26.369Z,12.94
2023-04-19T18:04:29.230Z,14.54
2023-04-19T18:09:31.832Z,15.39
2023-04-19T18:14:35.620Z,15.39
2023-04-19T18:19:39.285Z,14.04
2023-04-19T18:24:45.976Z,13.23
2023-04-19T18:29:55.848Z,12.71
2023-04-19T18:34:58.349Z,12.30
2023-04-19T18:40:05.325Z,11.97
2023-04-19T18:45:08.651Z,12.38
2023-04-19T18:50:12.009Z,14.13
2023-04-19T18:55:15.913Z,15.15
2023-04-19T19:00:21.738Z,15.22
2023-04-19T19:05:24.528Z,14.00
2023-04-19T19:15:37.327Z,12.69
2023-04-19T19:20:39.870Z,12.89
2023-04-19T19:25:42.427Z,14.46
2023-04-19T19:30:48.131Z,15.36
2023-04-19T19:35:50.643Z,15.83
2023-04-19T19:41:34.604Z,15.61
2023-04-19T19:46:15.846Z,14.15
2023-04-19T19:51:36.341Z,13.25
2023-04-19T19:57:00.539Z,13.00
2023-04-19T20:02:05.621Z,14.34
2023-04-19T20:07:32.776Z,15.19
2023-04-19T20:12:31.787Z,15.56
2023-04-19T20:17:34.496Z,15.84
2023-04-19T20:22:37.647Z,15.16
2023-04-19T20:27:40.345Z,13.87
2023-04-19T20:32:43.116Z,13.06
2023-04-19T20:37:46.449Z,13.03
2023-04-19T20:42:49.041Z,14.41
2023-04-19T20:47:52.015Z,15.18
2023-04-19T20:52:54.541Z,15.51
2023-04-19T20:57:57.032Z,15.79
2023-04-19T21:02:59.666Z,14.85
2023-04-19T21:08:02.568Z,13.63
2023-04-19T21:13:05.094Z,12.86
2023-04-19T21:18:08.110Z,12.81
2023-04-19T21:23:10.924Z,13.74
2023-04-19T21:28:13.581Z,14.62
2023-04-19T21:33:18.078Z,15.04
2023-04-19T21:38:20.826Z,15.28
2023-04-19T21:43:23.399Z,15.02
2023-04-19T21:48:26.178Z,13.66
2023-04-19T21:53:28.708Z,12.74
2023-04-19T21:58:31.770Z,12.69
2023-04-19T22:03:34.545Z,14.02
2023-04-19T22:08:37.430Z,14.80
2023-04-19T22:13:40.875Z,15.24
2023-04-19T22:18:43.773Z,15.63
2023-04-19T22:23:46.238Z,15.05
2023-04-19T22:28:49.162Z,13.70
2023-04-19T22:33:51.746Z,12.85
2023-04-19T22:38:54.509Z,12.85
2023-04-19T22:43:57.143Z,14.03
2023-04-19T22:48:59.689Z,14.72
2023-04-19T22:54:03.332Z,15.08
2023-04-19T22:59:08.066Z,15.12
2023-04-19T23:04:13.656Z,14.63
2023-04-19T23:09:18.037Z,13.12
2023-04-19T23:14:20.788Z,12.72
2023-04-19T23:19:23.337Z,13.72
2023-04-19T23:24:25.832Z,14.20
2023-04-19T23:29:29.157Z,14.56
2023-04-19T23:34:31.707Z,14.92
2023-04-19T23:39:34.183Z,15.19
2023-04-19T23:44:38.288Z,15.48
2023-04-19T23:49:40.900Z,15.18
2023-04-19T23:54:45.468Z,13.73
2023-04-19T23:59:48.032Z,12.79
